createdAt,value
2017-09-20T00:00:19.454Z,11.48
2017-09-20T00:01:19.448Z,11.42
2017-09-20T00:02:19.445Z,11.35
2017-09-20T00:03:19.440Z,11.31
2017-09-20T00:04:19.437Z,11.28
2017-09-20T00:05:19.432Z,11.26
2017-09-20T00:06:19.424Z,11.21
2017-09-20T00:07:19.419Z,11.26
2017-09-20T00:08:19.415Z,11.26
2017-09-20T00:09:19.411Z,11.27
2017-09-20T00:10:19.407Z,11.24
2017-09-20T00:11:19.403Z,11.24
2017-09-20T00:12:19.398Z,11.26
2017-09-20T00:13:19.394Z,11.28
2017-09-20T00:14:19.394Z,11.24
2017-09-20T00:15:19.417Z,11.27
2017-09-20T00:16:19.385Z,11.36
2017-09-20T00:17:19.381Z,11.28
2017-09-20T00:18:19.373Z,11.33
2017-09-20T00:19:19.367Z,11.38
2017-09-20T00:20:19.365Z,11.35
2017-09-20T00:21:19.360Z,11.45
2017-09-20T00:22:19.360Z,11.41
2017-09-20T00:23:19.356Z,11.44
2017-09-20T00:24:19.352Z,11.42
2017-09-20T00:25:19.349Z,11.46
2017-09-20T00:26:19.344Z,11.46
2017-09-20T00:27:19.338Z,11.44
2017-09-20T00:28:19.340Z,11.42
2017-09-20T00:29:19.332Z,11.49
2017-09-20T00:30:19.324Z,11.54
2017-09-20T00:31:19.319Z,11.56
2017-09-20T00:32:19.315Z,11.56
2017-09-20T00:33:19.310Z,11.56
2017-09-20T00:34:19.307Z,11.59
2017-09-20T00:35:19.303Z,11.62
2017-09-20T00:36:19.297Z,11.63
2017-09-20T00:37:19.294Z,11.62
2017-09-20T00:38:19.295Z,11.70
2017-09-20T00:39:19.291Z,11.72
2017-09-20T00:40:19.286Z,11.70
2017-09-20T00:41:19.282Z,11.77
2017-09-20T00:42:19.279Z,11.77
2017-09-20T00:43:19.274Z,11.87
2017-09-20T00:44:19.269Z,11.79
2017-09-20T00:45:19.267Z,11.74
2017-09-20T00:46:19.261Z,11.82
2017-09-20T00:47:19.254Z,11.72
2017-09-20T00:48:19.250Z,11.66
2017-09-20T00:49:19.246Z,11.69
2017-09-20T00:50:19.242Z,11.84
2017-09-20T00:51:19.238Z,11.82
2017-09-20T00:52:19.234Z,11.81
2017-09-20T00:53:19.229Z,11.79
2017-09-20T00:54:19.229Z,11.81
2017-09-20T00:55:19.224Z,11.79
2017-09-20T00:56:19.221Z,11.78
2017-09-20T00:57:19.241Z,11.88
2017-09-20T00:58:19.212Z,11.87
2017-09-20T00:59:19.208Z,11.93
2017-09-20T01:00:19.205Z,11.81
2017-09-20T01:01:19.201Z,11.79
2017-09-20T01:02:19.192Z,11.84
2017-09-20T01:03:19.186Z,11.75
2017-09-20T01:04:19.183Z,11.77
2017-09-20T01:05:19.179Z,11.85
2017-09-20T01:06:19.175Z,11.78
2017-09-20T01:07:19.172Z,11.82
2017-09-20T01:08:19.165Z,11.74
2017-09-20T01:09:19.162Z,11.78
2017-09-20T01:10:19.160Z,11.70
2017-09-20T01:11:19.156Z,11.70
2017-09-20T01:12:19.153Z,11.72
2017-09-20T01:13:19.147Z,11.66
2017-09-20T01:14:19.145Z,11.62
2017-09-20T01:15:19.137Z,11.66
2017-09-20T01:16:19.134Z,11.67
2017-09-20T01:17:19.129Z,11.56
2017-09-20T01:18:19.122Z,11.62
2017-09-20T01:19:19.120Z,11.66
2017-09-20T01:20:19.113Z,11.66
2017-09-20T01:21:19.111Z,11.60
2017-09-20T01:22:19.108Z,11.59
2017-09-20T01:23:19.103Z,11.60
2017-09-20T01:24:19.098Z,11.56
2017-09-20T01:25:19.093Z,11.57
2017-09-20T01:26:19.086Z,11.49
2017-09-20T01:27:19.081Z,11.42
2017-09-20T01:28:19.075Z,11.27
2017-09-20T01:29:19.071Z,11.36
2017-09-20T01:30:19.070Z,11.24
2017-09-20T01:31:19.062Z,11.23
2017-09-20T01:32:19.058Z,11.20
2017-09-20T01:33:19.054Z,11.09
2017-09-20T01:34:19.053Z,11.06
2017-09-20T01:35:19.049Z,11.08
2017-09-20T01:36:19.044Z,11.13
2017-09-20T01:37:19.040Z,11.08
2017-09-20T01:38:19.035Z,11.06
2017-09-20T01:39:19.030Z,11.05
2017-09-20T01:40:19.025Z,10.99
2017-09-20T01:41:19.020Z,11.01
2017-09-20T01:42:19.013Z,10.98
2017-09-20T01:43:19.008Z,11.03
2017-09-20T01:44:19.004Z,11.05
2017-09-20T01:45:18.999Z,11.08
2017-09-20T01:46:18.999Z,11.08
2017-09-20T01:47:18.989Z,11.16
2017-09-20T01:48:18.986Z,11.17
2017-09-20T01:49:19.015Z,11.24
2017-09-20T01:50:18.980Z,11.19
2017-09-20T01:51:18.981Z,11.19
2017-09-20T01:52:18.971Z,11.23
2017-09-20T01:53:18.967Z,11.23
2017-09-20T01:54:18.962Z,11.30
2017-09-20T01:55:18.958Z,11.33
2017-09-20T01:56:18.952Z,11.38
2017-09-20T01:57:18.951Z,11.28
2017-09-20T01:58:18.940Z,11.28
2017-09-20T01:59:18.935Z,11.33
2017-09-20T02:00:18.937Z,11.27
2017-09-20T02:01:18.926Z,11.36
2017-09-20T02:02:18.922Z,11.36
2017-09-20T02:03:18.924Z,11.38
2017-09-20T02:04:18.914Z,11.41
2017-09-20T02:05:18.909Z,11.45
2017-09-20T02:06:18.910Z,11.41
2017-09-20T02:07:18.904Z,11.39
2017-09-20T02:08:18.901Z,11.42
2017-09-20T02:09:18.896Z,11.45
2017-09-20T02:10:18.897Z,11.42
2017-09-20T02:11:18.886Z,11.45
2017-09-20T02:12:18.882Z,11.39
2017-09-20T02:13:18.878Z,11.39
2017-09-20T02:14:18.869Z,11.42
2017-09-20T02:15:18.865Z,11.48
2017-09-20T02:16:18.860Z,11.44
2017-09-20T02:17:18.856Z,11.46
2017-09-20T02:18:18.852Z,11.46
2017-09-20T02:19:18.847Z,11.44
2017-09-20T02:20:18.843Z,11.49
2017-09-20T02:21:18.841Z,11.42
2017-09-20T02:22:18.838Z,11.42
2017-09-20T02:23:18.833Z,11.48
2017-09-20T02:24:18.829Z,11.42
2017-09-20T02:25:18.824Z,11.42
2017-09-20T02:26:18.816Z,11.49
2017-09-20T02:27:18.811Z,11.48
2017-09-20T02:28:18.805Z,11.45
2017-09-20T02:29:18.802Z,11.48
2017-09-20T02:30:18.806Z,11.45
2017-09-20T02:31:18.797Z,11.42
2017-09-20T02:32:18.793Z,11.48
2017-09-20T02:33:18.790Z,11.49
2017-09-20T02:34:18.785Z,11.54
2017-09-20T02:35:18.779Z,11.53
2017-09-20T02:36:18.775Z,11.49
2017-09-20T02:37:18.771Z,11.49
2017-09-20T02:38:18.763Z,11.53
2017-09-20T02:39:18.757Z,11.49
2017-09-20T02:40:18.756Z,11.46
2017-09-20T02:41:18.749Z,11.46
2017-09-20T02:42:18.745Z,11.57
2017-09-20T02:43:18.742Z,11.44
2017-09-20T02:44:18.735Z,11.53
2017-09-20T02:45:18.731Z,11.49
2017-09-20T02:46:18.733Z,11.51
2017-09-20T02:47:18.733Z,11.57
2017-09-20T02:48:18.726Z,11.62
2017-09-20T02:49:18.721Z,11.57
2017-09-20T02:50:18.712Z,11.54
2017-09-20T02:51:18.710Z,11.56
2017-09-20T02:52:18.713Z,11.56
2017-09-20T02:53:18.699Z,11.64
2017-09-20T02:54:18.692Z,11.64
2017-09-20T02:55:18.685Z,11.66
2017-09-20T02:56:18.682Z,11.63
2017-09-20T02:57:18.680Z,11.60
2017-09-20T02:58:18.674Z,11.66
2017-09-20T02:59:18.668Z,11.70
2017-09-20T03:00:18.664Z,11.74
2017-09-20T03:01:18.659Z,11.77
2017-09-20T03:02:18.663Z,11.70
2017-09-20T03:03:18.655Z,11.69
2017-09-20T03:04:18.651Z,11.69
2017-09-20T03:05:18.648Z,11.64
2017-09-20T03:06:18.643Z,11.66
2017-09-20T03:07:18.638Z,11.75
2017-09-20T03:08:18.634Z,11.75
2017-09-20T03:09:18.631Z,11.77
2017-09-20T03:10:18.621Z,11.72
2017-09-20T03:11:18.617Z,11.72
2017-09-20T03:12:18.615Z,11.75
2017-09-20T03:13:18.608Z,11.66
2017-09-20T03:14:18.605Z,11.79
2017-09-20T03:15:18.600Z,11.70
2017-09-20T03:16:18.596Z,11.74
2017-09-20T03:17:18.591Z,11.66
2017-09-20T03:18:18.591Z,11.70
2017-09-20T03:19:18.586Z,11.74
2017-09-20T03:20:18.583Z,11.74
2017-09-20T03:21:18.578Z,11.77
2017-09-20T03:22:18.574Z,11.75
2017-09-20T03:23:18.570Z,11.67
2017-09-20T03:24:18.566Z,11.63
2017-09-20T03:25:18.562Z,11.66
2017-09-20T03:26:18.555Z,11.64
2017-09-20T03:27:18.549Z,11.66
2017-09-20T03:28:18.544Z,11.62
2017-09-20T03:29:18.541Z,11.59
2017-09-20T03:30:18.542Z,11.57
2017-09-20T03:31:18.536Z,11.54
2017-09-20T03:32:18.531Z,11.54
2017-09-20T03:33:18.531Z,11.46
2017-09-20T03:34:18.520Z,11.49
2017-09-20T03:35:18.514Z,11.53
2017-09-20T03:36:18.510Z,11.38
2017-09-20T03:37:18.506Z,11.36
2017-09-20T03:38:18.506Z,11.35
2017-09-20T03:39:18.497Z,11.31
2017-09-20T03:40:18.493Z,11.27
2017-09-20T03:41:18.490Z,11.30
2017-09-20T03:42:18.491Z,11.33
2017-09-20T03:43:18.484Z,11.31
2017-09-20T03:44:18.480Z,11.30
2017-09-20T03:45:18.475Z,11.35
2017-09-20T03:46:18.473Z,11.38
2017-09-20T03:47:18.467Z,11.35
2017-09-20T03:48:18.464Z,11.30
2017-09-20T03:49:18.458Z,11.42
2017-09-20T03:50:18.451Z,11.39
2017-09-20T03:51:18.446Z,11.39
2017-09-20T03:52:18.441Z,11.42
2017-09-20T03:53:18.437Z,11.45
2017-09-20T03:54:18.433Z,11.49
2017-09-20T03:55:18.429Z,11.60
2017-09-20T03:56:18.425Z,11.60
2017-09-20T03:57:18.421Z,11.70
2017-09-20T03:58:18.428Z,11.77
2017-09-20T03:59:18.416Z,11.81
2017-09-20T04:00:18.414Z,11.81
2017-09-20T04:01:18.412Z,11.87
2017-09-20T04:02:18.405Z,11.88
2017-09-20T04:03:18.398Z,11.93
2017-09-20T04:04:18.395Z,11.93
2017-09-20T04:05:18.392Z,11.90
2017-09-20T04:06:18.383Z,11.82
2017-09-20T04:07:18.378Z,11.88
2017-09-20T04:08:18.376Z,11.94
2017-09-20T04:09:18.371Z,11.87
2017-09-20T04:10:18.368Z,11.94
2017-09-20T04:11:18.362Z,11.98
2017-09-20T04:12:18.357Z,11.98
2017-09-20T04:13:18.355Z,11.90
2017-09-20T04:14:18.354Z,11.93
2017-09-20T04:15:18.349Z,11.81
2017-09-20T04:16:18.343Z,11.84
2017-09-20T04:17:18.340Z,11.84
2017-09-20T04:18:18.336Z,11.74
2017-09-20T04:19:18.332Z,11.87
2017-09-20T04:20:18.327Z,11.85
2017-09-20T04:21:18.323Z,11.81
2017-09-20T04:22:18.315Z,11.93
2017-09-20T04:23:18.316Z,11.96
2017-09-20T04:24:18.305Z,11.98
2017-09-20T04:25:18.301Z,12.01
2017-09-20T04:26:18.297Z,11.87
2017-09-20T04:27:18.292Z,11.87
2017-09-20T04:28:18.288Z,11.93
2017-09-20T04:29:18.284Z,11.85
2017-09-20T04:30:18.284Z,11.81
2017-09-20T04:31:18.278Z,11.79
2017-09-20T04:32:18.274Z,11.78
2017-09-20T04:33:18.270Z,11.74
2017-09-20T04:34:18.264Z,11.88
2017-09-20T04:35:18.262Z,11.81
2017-09-20T04:36:18.255Z,11.78
2017-09-20T04:37:18.251Z,11.70
2017-09-20T04:38:18.243Z,11.57
2017-09-20T04:39:18.236Z,11.54
2017-09-20T04:40:18.236Z,11.63
2017-09-20T04:41:18.229Z,11.67
2017-09-20T04:42:18.223Z,11.74
2017-09-20T04:43:18.218Z,11.79
2017-09-20T04:44:18.214Z,11.75
2017-09-20T04:45:18.211Z,11.77
2017-09-20T04:46:18.209Z,11.93
2017-09-20T04:47:18.203Z,11.81
2017-09-20T04:48:18.200Z,11.84
2017-09-20T04:49:18.195Z,11.77
2017-09-20T04:50:18.191Z,11.78
2017-09-20T04:51:18.186Z,11.81
2017-09-20T04:52:18.181Z,11.79
2017-09-20T04:53:18.176Z,11.81
2017-09-20T04:54:18.169Z,11.81
2017-09-20T04:55:18.163Z,11.87
2017-09-20T04:56:18.159Z,11.87
2017-09-20T04:57:18.154Z,11.87
2017-09-20T04:58:18.151Z,11.78
2017-09-20T04:59:18.145Z,11.87
2017-09-20T05:00:18.158Z,11.84
2017-09-20T05:01:18.135Z,11.78
2017-09-20T05:02:18.137Z,11.81
2017-09-20T05:03:18.130Z,11.82
2017-09-20T05:04:18.125Z,11.74
2017-09-20T05:05:18.121Z,11.74
2017-09-20T05:06:18.117Z,11.72
2017-09-20T05:07:18.111Z,11.69
2017-09-20T05:08:18.108Z,11.74
2017-09-20T05:09:18.103Z,11.70
2017-09-20T05:10:18.095Z,11.81
2017-09-20T05:11:18.090Z,11.82
2017-09-20T05:12:18.089Z,11.75
2017-09-20T05:13:18.080Z,11.77
2017-09-20T05:14:18.079Z,11.74
2017-09-20T05:15:18.070Z,11.74
2017-09-20T05:16:18.067Z,11.72
2017-09-20T05:17:18.062Z,11.72
2017-09-20T05:18:18.063Z,11.69
2017-09-20T05:19:18.058Z,11.74
2017-09-20T05:20:18.051Z,11.70
2017-09-20T05:21:18.054Z,11.74
2017-09-20T05:22:18.045Z,11.74
2017-09-20T05:23:18.040Z,11.66
2017-09-20T05:24:18.036Z,11.66
2017-09-20T05:25:18.030Z,11.67
2017-09-20T05:26:18.022Z,11.82
2017-09-20T05:27:18.017Z,11.87
2017-09-20T05:28:18.014Z,11.85
2017-09-20T05:29:18.009Z,11.85
2017-09-20T05:30:18.006Z,11.78
2017-09-20T05:31:18.000Z,11.82
2017-09-20T05:32:17.996Z,11.81
2017-09-20T05:33:17.992Z,11.85
2017-09-20T05:34:17.992Z,11.93
2017-09-20T05:35:17.986Z,11.90
2017-09-20T05:36:17.982Z,11.93
2017-09-20T05:37:17.978Z,11.94
2017-09-20T05:38:17.976Z,11.90
2017-09-20T05:39:17.967Z,11.96
2017-09-20T05:40:17.961Z,11.90
2017-09-20T05:41:17.958Z,11.93
2017-09-20T05:42:17.960Z,11.96
2017-09-20T05:43:17.953Z,11.98
2017-09-20T05:44:17.949Z,11.90
2017-09-20T05:45:17.945Z,11.90
2017-09-20T05:46:17.941Z,11.85
2017-09-20T05:47:17.935Z,11.93
2017-09-20T05:48:17.931Z,11.87
2017-09-20T05:49:17.929Z,11.90
2017-09-20T05:50:17.920Z,11.96
2017-09-20T05:51:17.915Z,11.96
2017-09-20T05:52:17.912Z,11.96
2017-09-20T05:53:17.907Z,11.96
2017-09-20T05:54:17.906Z,11.98
2017-09-20T05:55:17.898Z,11.94
2017-09-20T05:56:17.894Z,11.96
2017-09-20T05:57:17.889Z,11.96
2017-09-20T05:58:17.889Z,11.98
2017-09-20T05:59:17.916Z,11.94
2017-09-20T06:00:17.888Z,11.96
2017-09-20T06:01:17.876Z,12.05
2017-09-20T06:02:17.873Z,12.04
2017-09-20T06:03:17.868Z,12.08
2017-09-20T06:04:17.864Z,12.11
2017-09-20T06:05:17.860Z,12.03
2017-09-20T06:06:17.852Z,12.01
2017-09-20T06:07:17.848Z,12.01
2017-09-20T06:08:17.842Z,12.03
2017-09-20T06:09:17.839Z,12.15
2017-09-20T06:10:17.834Z,12.23
2017-09-20T06:11:17.831Z,12.07
2017-09-20T06:12:17.827Z,12.22
2017-09-20T06:13:17.823Z,12.22
2017-09-20T06:14:17.824Z,12.25
2017-09-20T06:15:17.818Z,12.21
2017-09-20T06:16:17.813Z,12.30
2017-09-20T06:17:17.811Z,12.25
2017-09-20T06:18:17.807Z,12.33
2017-09-20T06:19:17.803Z,12.31
2017-09-20T06:20:17.801Z,12.36
2017-09-20T06:21:17.796Z,12.37
2017-09-20T06:22:17.788Z,12.41
2017-09-20T06:23:17.783Z,12.38
2017-09-20T06:24:17.781Z,12.38
2017-09-20T06:25:17.776Z,12.44
2017-09-20T06:26:17.772Z,12.46
2017-09-20T06:27:17.768Z,12.44
2017-09-20T06:28:17.765Z,12.43
2017-09-20T06:29:17.761Z,12.46
2017-09-20T06:30:17.762Z,12.44
2017-09-20T06:31:17.760Z,12.44
2017-09-20T06:32:17.753Z,12.48
2017-09-20T06:33:17.748Z,12.38
2017-09-20T06:34:17.745Z,12.41
2017-09-20T06:35:17.742Z,12.38
2017-09-20T06:36:17.736Z,12.41
2017-09-20T06:37:17.734Z,12.36
2017-09-20T06:38:17.726Z,12.41
2017-09-20T06:39:17.722Z,12.37
2017-09-20T06:40:17.717Z,12.43
2017-09-20T06:41:17.714Z,12.36
2017-09-20T06:42:17.715Z,12.41
2017-09-20T06:43:17.710Z,12.46
2017-09-20T06:44:17.707Z,12.34
2017-09-20T06:45:17.703Z,12.48
2017-09-20T06:46:17.695Z,12.38
2017-09-20T06:47:17.690Z,12.36
2017-09-20T06:48:17.689Z,12.41
2017-09-20T06:49:17.683Z,12.43
2017-09-20T06:50:17.679Z,12.43
2017-09-20T06:51:17.674Z,12.44
2017-09-20T06:52:17.671Z,12.44
2017-09-20T06:53:17.666Z,12.41
2017-09-20T06:54:17.668Z,12.52
2017-09-20T06:55:17.663Z,12.51
2017-09-20T06:56:17.659Z,12.51
2017-09-20T06:57:17.656Z,12.56
2017-09-20T06:58:17.652Z,12.51
2017-09-20T06:59:17.649Z,12.51
2017-09-20T07:00:17.644Z,12.52
2017-09-20T07:01:17.641Z,12.51
2017-09-20T07:02:17.633Z,12.49
2017-09-20T07:03:17.628Z,12.54
2017-09-20T07:04:17.626Z,12.54
2017-09-20T07:05:17.621Z,12.51
2017-09-20T07:06:17.616Z,12.58
2017-09-20T07:07:17.613Z,12.56
2017-09-20T07:08:17.609Z,12.61
2017-09-20T07:09:17.606Z,12.58
2017-09-20T07:10:17.606Z,12.67
2017-09-20T07:11:17.601Z,12.55
2017-09-20T07:12:17.598Z,12.70
2017-09-20T07:13:17.594Z,12.69
2017-09-20T07:14:17.590Z,12.70
2017-09-20T07:15:17.587Z,12.70
2017-09-20T07:16:17.584Z,12.63
2017-09-20T07:17:17.582Z,12.63
2017-09-20T07:18:17.572Z,12.74
2017-09-20T07:19:17.567Z,12.80
2017-09-20T07:20:17.565Z,12.79
2017-09-20T07:21:17.561Z,12.89
2017-09-20T07:22:17.558Z,12.92
2017-09-20T07:23:17.553Z,13.03
2017-09-20T07:24:17.550Z,13.03
2017-09-20T07:25:17.552Z,13.12
2017-09-20T07:26:17.554Z,13.25
2017-09-20T07:27:17.542Z,13.16
2017-09-20T07:28:17.540Z,13.12
2017-09-20T07:29:17.537Z,13.22
2017-09-20T07:30:17.534Z,13.32
2017-09-20T07:31:17.530Z,13.25
2017-09-20T07:32:17.529Z,13.27
2017-09-20T07:33:17.524Z,13.29
2017-09-20T07:34:17.517Z,13.41
2017-09-20T07:35:17.514Z,13.48
2017-09-20T07:36:17.510Z,13.44
2017-09-20T07:37:17.507Z,13.62
2017-09-20T07:38:17.505Z,13.68
2017-09-20T07:39:17.500Z,13.81
2017-09-20T07:40:17.496Z,13.72
2017-09-20T07:41:17.493Z,13.87
2017-09-20T07:42:17.496Z,13.79
2017-09-20T07:43:17.492Z,13.86
2017-09-20T07:44:17.489Z,13.65
2017-09-20T07:45:17.486Z,13.72
2017-09-20T07:46:17.480Z,13.76
2017-09-20T07:47:17.496Z,13.76
2017-09-20T07:48:17.474Z,13.86
2017-09-20T07:49:17.473Z,13.83
2017-09-20T07:50:17.473Z,13.87
2017-09-20T07:51:17.471Z,13.91
2017-09-20T07:52:17.468Z,13.96
2017-09-20T07:53:17.467Z,14.06
2017-09-20T07:54:17.464Z,14.09
2017-09-20T07:55:17.461Z,14.21
2017-09-20T07:56:17.459Z,14.29
2017-09-20T07:57:17.456Z,14.54
2017-09-20T07:58:17.450Z,14.66
2017-09-20T07:59:17.448Z,14.75
2017-09-20T08:00:17.446Z,14.75
2017-09-20T08:01:17.444Z,14.63
2017-09-20T08:02:17.442Z,14.64
2017-09-20T08:03:17.440Z,14.83
2017-09-20T08:04:17.438Z,14.79
2017-09-20T08:05:17.437Z,14.87
2017-09-20T08:06:17.439Z,15.03
2017-09-20T08:07:17.437Z,14.74
2017-09-20T08:08:17.435Z,14.63
2017-09-20T08:09:17.433Z,14.61
2017-09-20T08:10:17.431Z,14.57
2017-09-20T08:11:17.430Z,15.00
2017-09-20T08:12:17.428Z,14.75
2017-09-20T08:13:17.428Z,14.72
2017-09-20T08:14:17.423Z,14.93
2017-09-20T08:15:17.426Z,14.86
2017-09-20T08:16:17.419Z,15.03
2017-09-20T08:17:17.417Z,15.20
2017-09-20T08:18:17.418Z,15.28
2017-09-20T08:19:17.415Z,15.34
2017-09-20T08:20:17.413Z,15.35
2017-09-20T08:21:17.413Z,15.48
2017-09-20T08:22:17.417Z,15.67
2017-09-20T08:23:17.415Z,16.08
2017-09-20T08:24:17.414Z,16.47
2017-09-20T08:25:17.412Z,16.62
2017-09-20T08:26:17.411Z,16.62
2017-09-20T08:27:17.411Z,16.45
2017-09-20T08:28:17.411Z,16.44
2017-09-20T08:29:17.408Z,16.51
2017-09-20T08:30:17.405Z,16.54
2017-09-20T08:31:17.404Z,16.52
2017-09-20T08:32:17.404Z,16.59
2017-09-20T08:33:17.403Z,16.60
2017-09-20T08:34:17.404Z,17.17
2017-09-20T08:35:17.403Z,17.70
2017-09-20T08:36:17.402Z,17.62
2017-09-20T08:37:17.403Z,17.68
2017-09-20T08:38:17.406Z,17.57
2017-09-20T08:39:17.406Z,17.47
2017-09-20T08:40:17.416Z,17.38
2017-09-20T08:41:17.451Z,17.60
2017-09-20T08:42:17.407Z,18.17
2017-09-20T08:43:17.408Z,18.69
2017-09-20T08:44:17.408Z,20.04
2017-09-20T08:45:17.409Z,20.22
2017-09-20T08:46:17.404Z,20.16
2017-09-20T08:47:17.405Z,19.89
2017-09-20T08:48:17.407Z,19.80
2017-09-20T08:49:17.408Z,19.35
2017-09-20T08:50:17.410Z,19.43
2017-09-20T08:51:17.411Z,19.38
2017-09-20T08:52:17.413Z,19.50
2017-09-20T08:53:17.416Z,19.55
2017-09-20T08:54:17.423Z,19.50
2017-09-20T08:55:17.424Z,19.02
2017-09-20T08:56:17.427Z,18.51
2017-09-20T08:57:17.428Z,18.76
2017-09-20T08:58:17.434Z,18.84
2017-09-20T08:59:17.432Z,18.89
2017-09-20T09:00:17.436Z,18.74
2017-09-20T09:01:17.439Z,18.54
2017-09-20T09:02:17.435Z,17.99
2017-09-20T09:03:17.437Z,17.89
2017-09-20T09:04:17.440Z,17.99
2017-09-20T09:05:17.443Z,17.91
2017-09-20T09:06:17.445Z,17.98
2017-09-20T09:07:17.447Z,18.07
2017-09-20T09:08:17.451Z,17.74
2017-09-20T09:09:17.451Z,18.13
2017-09-20T09:10:17.459Z,17.79
2017-09-20T09:11:17.458Z,18.04
2017-09-20T09:12:17.460Z,18.20
2017-09-20T09:13:17.462Z,18.32
2017-09-20T09:14:17.464Z,18.50
2017-09-20T09:15:17.466Z,18.71
2017-09-20T09:16:17.469Z,18.89
2017-09-20T09:17:17.472Z,18.87
2017-09-20T09:18:17.485Z,18.94
2017-09-20T09:19:17.470Z,18.50
2017-09-20T09:20:17.474Z,18.50
2017-09-20T09:21:17.474Z,18.31
2017-09-20T09:22:17.480Z,18.14
2017-09-20T09:23:17.479Z,18.31
2017-09-20T09:24:17.487Z,18.32
2017-09-20T09:25:17.483Z,18.23
2017-09-20T09:26:17.490Z,17.89
2017-09-20T09:27:17.490Z,17.80
2017-09-20T09:28:17.493Z,17.71
2017-09-20T09:29:17.496Z,17.84
2017-09-20T09:30:17.497Z,17.99
2017-09-20T09:31:17.499Z,18.19
2017-09-20T09:32:17.502Z,18.19
2017-09-20T09:33:17.502Z,18.31
2017-09-20T09:34:17.501Z,18.29
2017-09-20T09:35:17.501Z,18.32
2017-09-20T09:36:17.504Z,18.51
2017-09-20T09:37:17.506Z,18.51
2017-09-20T09:38:17.509Z,18.50
2017-09-20T09:39:17.510Z,18.69
2017-09-20T09:40:17.513Z,18.91
2017-09-20T09:41:17.512Z,19.23
2017-09-20T09:42:17.520Z,19.78
2017-09-20T09:43:17.520Z,20.19
2017-09-20T09:44:17.525Z,20.63
2017-09-20T09:45:17.527Z,21.33
2017-09-20T09:46:17.535Z,21.46
2017-09-20T09:47:17.529Z,21.52
2017-09-20T09:48:17.554Z,21.42
2017-09-20T09:49:17.535Z,21.63
2017-09-20T09:50:17.534Z,21.98
2017-09-20T09:51:17.553Z,21.85
2017-09-20T09:52:17.544Z,21.30
2017-09-20T09:53:17.543Z,21.49
2017-09-20T09:54:17.551Z,21.63
2017-09-20T09:55:17.552Z,21.75
2017-09-20T09:56:17.565Z,21.63
2017-09-20T09:57:17.561Z,21.53
2017-09-20T09:58:17.561Z,21.53
2017-09-20T09:59:17.565Z,21.40
2017-09-20T10:00:17.566Z,21.18
2017-09-20T10:01:17.571Z,20.94
2017-09-20T10:02:17.575Z,20.51
2017-09-20T10:03:17.578Z,20.46
2017-09-20T10:04:17.584Z,20.33
2017-09-20T10:05:17.585Z,20.16
2017-09-20T10:06:17.594Z,20.00
2017-09-20T10:07:17.595Z,19.79
2017-09-20T10:08:17.598Z,19.68
2017-09-20T10:09:17.601Z,19.45
2017-09-20T10:10:17.604Z,19.27
2017-09-20T10:11:17.607Z,19.27
2017-09-20T10:12:17.608Z,19.06
2017-09-20T10:13:17.612Z,19.05
2017-09-20T10:14:17.610Z,19.10
2017-09-20T10:15:17.610Z,19.02
2017-09-20T10:16:17.614Z,19.01
2017-09-20T10:17:17.616Z,18.96
2017-09-20T10:18:17.618Z,19.50
2017-09-20T10:19:17.621Z,20.13
2017-09-20T10:20:17.621Z,20.26
2017-09-20T10:21:17.624Z,20.38
2017-09-20T10:22:17.630Z,20.30
2017-09-20T10:23:17.630Z,20.42
2017-09-20T10:24:17.635Z,20.46
2017-09-20T10:25:17.635Z,20.31
2017-09-20T10:26:17.653Z,20.35
2017-09-20T10:27:17.640Z,20.04
2017-09-20T10:28:17.643Z,20.01
2017-09-20T10:29:17.646Z,19.57
2017-09-20T10:30:17.644Z,19.57
2017-09-20T10:31:17.646Z,19.38
2017-09-20T10:32:17.652Z,19.50
2017-09-20T10:33:17.650Z,19.40
2017-09-20T10:34:17.654Z,19.46
2017-09-20T10:35:17.656Z,19.57
2017-09-20T10:36:17.664Z,19.60
2017-09-20T10:37:17.661Z,19.70
2017-09-20T10:38:17.668Z,19.71
2017-09-20T10:39:17.669Z,19.55
2017-09-20T10:40:17.677Z,19.72
2017-09-20T10:41:17.674Z,19.53
2017-09-20T10:42:17.677Z,19.58
2017-09-20T10:43:17.678Z,19.58
2017-09-20T10:44:17.683Z,19.60
2017-09-20T10:45:17.682Z,19.55
2017-09-20T10:46:17.682Z,19.65
2017-09-20T10:47:17.683Z,19.40
2017-09-20T10:48:17.685Z,19.43
2017-09-20T10:49:17.688Z,19.80
2017-09-20T10:50:17.691Z,20.19
2017-09-20T10:51:17.692Z,20.61
2017-09-20T10:52:17.695Z,21.18
2017-09-20T10:53:17.697Z,21.16
2017-09-20T10:54:17.706Z,21.56
2017-09-20T10:55:17.707Z,21.40
2017-09-20T10:56:17.709Z,21.48
2017-09-20T10:57:17.714Z,21.51
2017-09-20T10:58:17.713Z,21.06
2017-09-20T10:59:17.717Z,20.85
2017-09-20T11:00:17.719Z,21.11
2017-09-20T11:01:17.722Z,21.33
2017-09-20T11:02:17.733Z,21.73
2017-09-20T11:03:17.734Z,22.23
2017-09-20T11:04:17.739Z,22.39
2017-09-20T11:05:17.744Z,22.59
2017-09-20T11:06:17.747Z,22.72
2017-09-20T11:07:17.750Z,23.25
2017-09-20T11:08:17.756Z,23.67
2017-09-20T11:09:17.763Z,24.00
2017-09-20T11:10:17.761Z,24.21
2017-09-20T11:11:17.765Z,24.12
2017-09-20T11:12:17.770Z,23.78
2017-09-20T11:13:17.774Z,23.86
2017-09-20T11:14:17.780Z,24.37
2017-09-20T11:15:17.784Z,25.35
2017-09-20T11:16:17.790Z,25.29
2017-09-20T11:17:17.798Z,24.79
2017-09-20T11:18:17.806Z,24.51
2017-09-20T11:19:17.816Z,24.15
2017-09-20T11:20:17.817Z,24.52
2017-09-20T11:21:17.822Z,24.71
2017-09-20T11:22:17.828Z,24.86
2017-09-20T11:23:17.833Z,24.49
2017-09-20T11:24:17.840Z,24.27
2017-09-20T11:25:17.847Z,24.15
2017-09-20T11:26:17.848Z,23.87
2017-09-20T11:27:17.853Z,23.63
2017-09-20T11:28:17.860Z,23.52
2017-09-20T11:29:17.866Z,23.04
2017-09-20T11:30:17.870Z,23.03
2017-09-20T11:31:17.874Z,22.75
2017-09-20T11:32:17.881Z,22.39
2017-09-20T11:33:17.917Z,22.01
2017-09-20T11:34:17.895Z,22.23
2017-09-20T11:35:17.902Z,22.24
2017-09-20T11:36:17.907Z,22.33
2017-09-20T11:37:17.912Z,22.15
2017-09-20T11:38:17.918Z,22.26
2017-09-20T11:39:17.921Z,22.15
2017-09-20T11:40:17.927Z,21.99
2017-09-20T11:41:17.930Z,22.05
2017-09-20T11:42:17.930Z,22.04
2017-09-20T11:43:17.935Z,22.17
2017-09-20T11:44:17.940Z,22.21
2017-09-20T11:45:17.972Z,21.96
2017-09-20T11:46:17.949Z,21.96
2017-09-20T11:47:17.952Z,21.93
2017-09-20T11:48:17.955Z,21.94
2017-09-20T11:49:17.960Z,22.19
2017-09-20T11:50:17.968Z,22.21
2017-09-20T11:51:17.972Z,22.15
2017-09-20T11:52:17.977Z,21.90
2017-09-20T11:53:17.978Z,21.63
2017-09-20T11:54:17.984Z,21.37
2017-09-20T11:55:17.987Z,21.37
2017-09-20T11:56:17.990Z,21.18
2017-09-20T11:57:17.997Z,21.42
2017-09-20T11:58:17.995Z,21.56
2017-09-20T11:59:17.996Z,21.55
2017-09-20T12:00:18.000Z,21.61
2017-09-20T12:01:18.009Z,21.56
2017-09-20T12:02:18.013Z,21.89
2017-09-20T12:03:18.015Z,21.83
2017-09-20T12:04:18.017Z,22.08
2017-09-20T12:05:18.023Z,22.14
2017-09-20T12:06:18.021Z,22.23
2017-09-20T12:07:18.024Z,22.19
2017-09-20T12:08:18.027Z,22.26
2017-09-20T12:09:18.029Z,22.19
2017-09-20T12:10:18.033Z,22.12
2017-09-20T12:11:18.035Z,21.82
2017-09-20T12:12:18.038Z,21.86
2017-09-20T12:13:18.043Z,21.83
2017-09-20T12:14:18.049Z,21.89
2017-09-20T12:15:18.053Z,21.75
2017-09-20T12:16:18.056Z,21.46
2017-09-20T12:17:18.059Z,21.45
2017-09-20T12:18:18.065Z,21.42
2017-09-20T12:19:18.065Z,21.37
2017-09-20T12:20:18.070Z,21.37
2017-09-20T12:21:18.072Z,21.46
2017-09-20T12:22:18.071Z,21.52
2017-09-20T12:23:18.075Z,21.40
2017-09-20T12:24:18.076Z,21.33
2017-09-20T12:25:18.079Z,21.34
2017-09-20T12:26:18.083Z,21.22
2017-09-20T12:27:18.085Z,21.28
2017-09-20T12:28:18.088Z,21.24
2017-09-20T12:29:18.091Z,21.11
2017-09-20T12:30:18.098Z,21.00
2017-09-20T12:31:18.103Z,21.11
2017-09-20T12:32:18.106Z,21.16
2017-09-20T12:33:18.107Z,21.15
2017-09-20T12:34:18.110Z,20.94
2017-09-20T12:35:18.117Z,20.90
2017-09-20T12:36:18.116Z,20.81
2017-09-20T12:37:18.117Z,20.72
2017-09-20T12:38:18.117Z,20.64
2017-09-20T12:39:18.118Z,20.81
2017-09-20T12:40:18.121Z,20.83
2017-09-20T12:41:18.125Z,20.91
2017-09-20T12:42:18.127Z,20.94
2017-09-20T12:43:18.129Z,20.88
2017-09-20T12:44:18.132Z,21.08
2017-09-20T12:45:18.134Z,21.12
2017-09-20T12:46:18.142Z,21.19
2017-09-20T12:47:18.145Z,21.21
2017-09-20T12:48:18.148Z,21.38
2017-09-20T12:49:18.150Z,21.53
2017-09-20T12:50:18.151Z,21.56
2017-09-20T12:51:18.154Z,21.71
2017-09-20T12:52:18.158Z,21.59